createdAt,value
2022-07-27T00:00:57.511Z,20.00
2022-07-27T00:03:24.949Z,19.91
2022-07-27T00:05:52.110Z,19.63
2022-07-27T00:08:23.943Z,20.23
2022-07-27T00:10:52.104Z,19.55
2022-07-27T00:13:19.250Z,19.62
2022-07-27T00:15:46.373Z,19.49
2022-07-27T00:18:13.741Z,20.05
2022-07-27T00:20:41.641Z,19.50
2022-07-27T00:23:08.783Z,19.84
2022-07-27T00:25:36.179Z,20.15
2022-07-27T00:28:03.469Z,19.75
2022-07-27T00:30:30.613Z,19.96
2022-07-27T00:32:58.081Z,19.43
2022-07-27T00:35:25.455Z,19.46
2022-07-27T00:37:52.605Z,19.58
2022-07-27T00:40:20.151Z,19.30
2022-07-27T00:42:47.246Z,20.04
2022-07-27T00:45:14.615Z,19.67
2022-07-27T00:47:42.059Z,19.54
2022-07-27T00:50:09.297Z,19.46
2022-07-27T00:52:36.800Z,19.49
2022-07-27T00:55:04.650Z,19.71
2022-07-27T00:57:31.752Z,19.69
2022-07-27T00:59:58.886Z,19.44
2022-07-27T01:02:26.489Z,19.75
2022-07-27T01:04:57.042Z,20.04
2022-07-27T01:07:24.594Z,19.89
2022-07-27T01:09:58.163Z,19.68
2022-07-27T01:12:28.893Z,19.71
2022-07-27T01:14:56.953Z,19.38
2022-07-27T01:17:24.444Z,19.69
2022-07-27T01:19:51.664Z,19.21
2022-07-27T01:22:19.041Z,19.52
2022-07-27T01:24:46.197Z,19.20
2022-07-27T01:27:13.305Z,19.38
2022-07-27T01:29:41.649Z,19.32
2022-07-27T01:32:08.823Z,19.35
2022-07-27T01:34:35.993Z,19.22
2022-07-27T01:37:03.577Z,19.61
2022-07-27T01:39:30.781Z,18.96
2022-07-27T01:41:58.046Z,19.17
2022-07-27T01:44:25.418Z,18.98
2022-07-27T01:46:52.727Z,18.74
2022-07-27T01:49:20.217Z,18.66
2022-07-27T01:51:47.855Z,18.96
2022-07-27T01:54:15.106Z,19.06
2022-07-27T01:56:42.311Z,19.13
2022-07-27T01:59:16.848Z,18.94
2022-07-27T02:01:44.924Z,19.20
2022-07-27T02:04:12.490Z,19.46
2022-07-27T02:06:39.651Z,18.99
2022-07-27T02:09:06.868Z,19.16
2022-07-27T02:11:52.718Z,19.59
2022-07-27T02:14:21.346Z,20.05
2022-07-27T02:16:49.918Z,19.33
2022-07-27T02:19:18.303Z,20.14
2022-07-27T02:21:45.983Z,19.62
2022-07-27T02:24:13.413Z,19.09
2022-07-27T02:26:40.523Z,18.86
2022-07-27T02:29:07.681Z,18.48
2022-07-27T02:31:35.385Z,18.52
2022-07-27T02:34:02.506Z,18.69
2022-07-27T02:36:29.666Z,18.37
2022-07-27T02:38:57.250Z,18.37
2022-07-27T02:41:24.443Z,18.34
2022-07-27T02:43:51.686Z,18.56
2022-07-27T02:46:19.096Z,18.62
2022-07-27T02:48:46.374Z,18.32
2022-07-27T02:51:15.065Z,18.43
2022-07-27T02:53:42.644Z,18.44
2022-07-27T02:56:09.867Z,18.87
2022-07-27T02:58:37.512Z,19.22
2022-07-27T03:01:05.312Z,19.50
2022-07-27T03:03:36.635Z,19.06
2022-07-27T03:06:05.727Z,19.87
2022-07-27T03:08:32.855Z,19.90
2022-07-27T03:10:59.979Z,20.19
2022-07-27T03:13:28.943Z,19.85
2022-07-27T03:15:56.283Z,20.26
2022-07-27T03:18:23.463Z,20.03
2022-07-27T03:20:50.857Z,20.29
2022-07-27T03:23:18.096Z,20.51
2022-07-27T03:25:45.211Z,20.00
2022-07-27T03:28:12.615Z,19.99
2022-07-27T03:30:39.796Z,19.85
2022-07-27T03:33:06.971Z,20.25
2022-07-27T03:35:34.324Z,20.93
2022-07-27T03:38:01.554Z,20.78
2022-07-27T03:40:33.500Z,20.92
2022-07-27T03:43:00.950Z,21.17
2022-07-27T03:45:28.094Z,21.45
2022-07-27T03:47:55.257Z,21.55
2022-07-27T03:50:22.770Z,21.54
2022-07-27T03:52:50.269Z,21.60
2022-07-27T03:55:17.509Z,21.92
2022-07-27T03:57:44.926Z,21.99
2022-07-27T04:00:13.100Z,22.00
2022-07-27T04:02:40.788Z,21.92
2022-07-27T04:05:08.349Z,21.78
2022-07-27T04:07:35.483Z,22.00
2022-07-27T04:10:02.966Z,21.96
2022-07-27T04:12:30.881Z,21.91
2022-07-27T04:14:58.936Z,22.00
2022-07-27T04:17:54.829Z,22.27
2022-07-27T04:20:13.490Z,21.83
2022-07-27T04:22:42.095Z,22.13
2022-07-27T04:25:09.392Z,22.07
2022-07-27T04:27:36.547Z,21.82
2022-07-27T04:30:08.982Z,21.79
2022-07-27T04:32:36.810Z,22.00
2022-07-27T04:35:04.419Z,21.27
2022-07-27T04:37:32.062Z,21.99
2022-07-27T04:39:59.202Z,21.87
2022-07-27T04:42:26.573Z,22.19
2022-07-27T04:44:53.697Z,21.52
2022-07-27T04:47:20.793Z,21.89
2022-07-27T04:49:48.221Z,21.35
2022-07-27T04:52:16.173Z,21.92
2022-07-27T04:54:43.343Z,22.98
2022-07-27T04:57:10.704Z,23.39
2022-07-27T04:59:37.864Z,23.95
2022-07-27T05:02:04.973Z,23.91
2022-07-27T05:04:32.496Z,24.55
2022-07-27T05:06:59.681Z,26.12
2022-07-27T05:09:26.834Z,27.67
2022-07-27T05:11:54.198Z,29.01
2022-07-27T05:14:21.896Z,29.84
2022-07-27T05:16:49.889Z,30.28
2022-07-27T05:19:17.401Z,31.56
2022-07-27T05:21:44.518Z,32.45
2022-07-27T05:24:11.766Z,33.19
2022-07-27T05:26:39.130Z,33.84
2022-07-27T05:29:06.237Z,34.78
2022-07-27T05:31:33.449Z,35.73
2022-07-27T05:34:00.910Z,36.33
2022-07-27T05:36:28.108Z,36.65
2022-07-27T05:38:55.297Z,37.14
2022-07-27T05:41:25.783Z,37.70
2022-07-27T05:43:54.365Z,38.21
2022-07-27T05:46:21.838Z,38.04
2022-07-27T05:48:49.444Z,38.28
2022-07-27T05:51:16.601Z,39.13
2022-07-27T05:53:43.693Z,39.88
2022-07-27T05:56:11.462Z,39.74
2022-07-27T05:58:38.606Z,40.26
2022-07-27T06:01:05.751Z,41.02
2022-07-27T06:03:33.273Z,41.20
2022-07-27T06:06:19.294Z,41.44
2022-07-27T06:08:46.702Z,40.88
2022-07-27T06:11:14.477Z,41.97
2022-07-27T06:13:42.264Z,42.10
2022-07-27T06:16:09.995Z,42.17
2022-07-27T06:18:37.216Z,42.91
2022-07-27T06:21:04.740Z,42.49
2022-07-27T06:23:32.133Z,42.63
2022-07-27T06:25:59.289Z,42.94
2022-07-27T06:28:26.730Z,43.51
2022-07-27T06:30:54.110Z,43.61
2022-07-27T06:33:27.718Z,43.57
2022-07-27T06:35:56.704Z,43.39
2022-07-27T06:38:24.616Z,43.27
2022-07-27T06:40:55.001Z,43.14
2022-07-27T06:43:26.275Z,43.88
2022-07-27T06:45:56.393Z,43.25
2022-07-27T06:48:23.859Z,43.15
2022-07-27T06:50:51.085Z,43.40
2022-07-27T06:53:21.082Z,43.03
2022-07-27T06:55:49.299Z,43.60
2022-07-27T06:58:16.561Z,43.05
2022-07-27T07:00:43.826Z,43.10
2022-07-27T07:03:11.506Z,43.96
2022-07-27T07:05:45.337Z,43.40
2022-07-27T07:08:13.493Z,44.37
2022-07-27T07:10:40.954Z,45.33
2022-07-27T07:13:08.097Z,45.28
2022-07-27T07:15:35.878Z,42.74
2022-07-27T07:18:03.829Z,44.40
2022-07-27T07:20:30.934Z,42.82
2022-07-27T07:22:58.597Z,42.56
2022-07-27T07:25:25.804Z,43.83
2022-07-27T07:27:52.909Z,42.30
2022-07-27T07:30:20.330Z,42.20
2022-07-27T07:32:47.586Z,41.25
2022-07-27T07:35:14.685Z,43.75
2022-07-27T07:37:42.094Z,42.90
2022-07-27T07:40:41.254Z,44.67
2022-07-27T07:43:00.107Z,44.22
2022-07-27T07:45:27.805Z,44.47
2022-07-27T07:47:55.027Z,39.17
2022-07-27T07:50:22.634Z,39.50
2022-07-27T07:52:50.254Z,39.74
2022-07-27T07:55:23.849Z,42.03
2022-07-27T07:57:51.253Z,41.92
2022-07-27T08:00:19.364Z,41.53
2022-07-27T08:02:47.336Z,38.36
2022-07-27T08:05:14.467Z,40.07
2022-07-27T08:07:41.753Z,40.54
2022-07-27T08:10:09.426Z,39.61
2022-07-27T08:12:37.000Z,40.88
2022-07-27T08:15:04.579Z,41.58
2022-07-27T08:17:32.008Z,43.23
2022-07-27T08:19:59.121Z,40.05
2022-07-27T08:22:26.246Z,40.32
2022-07-27T08:24:53.611Z,40.53
2022-07-27T08:27:20.746Z,39.32
2022-07-27T08:29:47.894Z,42.25
2022-07-27T08:32:19.482Z,43.39
2022-07-27T08:34:46.680Z,43.51
2022-07-27T08:37:15.774Z,44.11
2022-07-27T08:42:30.489Z,41.27
2022-07-27T08:44:57.861Z,41.63
2022-07-27T08:47:25.076Z,42.30
2022-07-27T08:49:52.279Z,42.69
2022-07-27T08:52:20.093Z,43.40
2022-07-27T08:54:47.261Z,43.48
2022-07-27T08:57:14.573Z,43.78
2022-07-27T08:59:41.946Z,39.96
2022-07-27T09:02:11.099Z,39.94
2022-07-27T09:04:39.986Z,40.29
2022-07-27T09:07:07.370Z,41.79
2022-07-27T09:09:45.966Z,41.93
2022-07-27T09:12:13.314Z,41.37
2022-07-27T09:14:40.979Z,41.18
2022-07-27T09:20:17.656Z,41.58
2022-07-27T09:22:46.590Z,40.40
2022-07-27T09:25:14.935Z,42.28
2022-07-27T09:27:42.639Z,41.01
2022-07-27T09:30:14.116Z,43.65
2022-07-27T09:32:54.959Z,44.00
2022-07-27T09:35:23.290Z,44.38
2022-07-27T09:37:50.688Z,44.41
2022-07-27T09:40:24.257Z,45.06
2022-07-27T09:43:52.248Z,45.97
2022-07-27T09:45:57.004Z,42.83
2022-07-27T09:48:24.489Z,45.35
2022-07-27T09:51:02.252Z,45.36
2022-07-27T09:53:43.687Z,45.17
2022-07-27T09:56:13.204Z,42.08
2022-07-27T09:58:55.728Z,43.73
2022-07-27T10:01:23.966Z,45.31
2022-07-27T10:04:00.938Z,45.02
2022-07-27T10:06:28.122Z,46.84
2022-07-27T10:08:55.822Z,47.84
2022-07-27T10:11:23.161Z,46.23
2022-07-27T10:13:50.404Z,45.44
2022-07-27T10:16:18.716Z,44.14
2022-07-27T10:19:08.079Z,43.22
2022-07-27T10:21:37.530Z,44.76
2022-07-27T10:24:05.563Z,42.18
2022-07-27T10:26:36.439Z,43.81
2022-07-27T10:29:04.884Z,43.69
2022-07-27T10:31:38.404Z,45.12
2022-07-27T10:34:06.471Z,45.47
2022-07-27T10:36:33.526Z,45.11
2022-07-27T10:39:01.284Z,45.73
2022-07-27T10:41:28.617Z,44.77
2022-07-27T10:44:14.972Z,45.34
2022-07-27T10:46:45.328Z,45.56
2022-07-27T10:49:19.248Z,46.28
2022-07-27T10:51:46.695Z,46.80
2022-07-27T10:54:20.570Z,46.97
2022-07-27T10:56:48.547Z,43.20
2022-07-27T10:59:15.673Z,40.61
2022-07-27T11:02:00.917Z,38.76
2022-07-27T11:04:28.330Z,39.45
2022-07-27T11:07:23.525Z,39.26
2022-07-27T11:12:30.541Z,38.55
2022-07-27T11:14:58.061Z,38.35
2022-07-27T11:20:14.063Z,35.96
2022-07-27T11:25:28.671Z,35.86
2022-07-27T11:27:55.809Z,36.16
2022-07-27T11:30:23.802Z,36.43
2022-07-27T11:32:51.268Z,35.76
2022-07-27T11:35:20.184Z,34.11
2022-07-27T11:38:05.097Z,34.06
2022-07-27T11:43:36.818Z,35.29
2022-07-27T11:46:30.957Z,35.38
2022-07-27T11:49:08.445Z,33.26
2022-07-27T11:51:39.331Z,33.82
2022-07-27T11:54:07.473Z,33.19
2022-07-27T11:56:35.065Z,32.73
2022-07-27T11:59:08.225Z,33.69
2022-07-27T12:01:36.618Z,32.45
2022-07-27T12:04:04.702Z,33.56
2022-07-27T12:06:32.331Z,34.01
2022-07-27T12:09:00.005Z,34.69
2022-07-27T12:11:34.016Z,33.89
2022-07-27T12:14:10.790Z,33.15
2022-07-27T12:16:38.252Z,33.08
2022-07-27T12:19:05.595Z,33.30
2022-07-27T12:21:32.673Z,33.38
2022-07-27T12:24:00.469Z,33.33
2022-07-27T12:26:29.941Z,33.04
2022-07-27T12:29:06.982Z,33.73
2022-07-27T12:31:35.061Z,34.27
2022-07-27T12:34:06.527Z,34.13
2022-07-27T12:36:33.869Z,34.29
2022-07-27T12:39:01.297Z,34.68
2022-07-27T12:41:29.724Z,34.37
2022-07-27T12:44:11.006Z,34.55
2022-07-27T12:47:01.683Z,34.00
2022-07-27T12:49:35.076Z,33.74
2022-07-27T12:52:09.550Z,34.04
2022-07-27T12:54:37.000Z,34.60
2022-07-27T12:57:04.430Z,34.59
2022-07-27T12:59:31.564Z,33.85
2022-07-27T13:01:58.830Z,34.32
2022-07-27T13:04:26.338Z,33.65
2022-07-27T13:06:53.487Z,33.80
2022-07-27T13:09:20.620Z,33.08
2022-07-27T13:11:48.532Z,32.49
2022-07-27T13:14:16.492Z,32.74
2022-07-27T13:16:44.081Z,33.59
2022-07-27T13:19:14.326Z,33.71
2022-07-27T13:21:41.674Z,33.52
2022-07-27T13:24:10.598Z,33.05
2022-07-27T13:26:38.314Z,32.12
2022-07-27T13:29:05.468Z,31.92
2022-07-27T13:31:32.735Z,31.30
2022-07-27T13:34:00.334Z,32.24
2022-07-27T13:36:27.449Z,32.50
2022-07-27T13:38:54.630Z,33.22
2022-07-27T13:41:22.291Z,31.29
2022-07-27T13:43:49.418Z,31.57
2022-07-27T13:46:16.621Z,32.61
2022-07-27T13:48:44.119Z,32.63
2022-07-27T13:51:11.308Z,32.58
2022-07-27T13:53:38.639Z,31.78
2022-07-27T13:56:07.454Z,32.22
2022-07-27T13:58:34.578Z,31.76
2022-07-27T14:01:07.337Z,32.26
2022-07-27T14:03:35.097Z,32.00
2022-07-27T14:06:02.246Z,32.50
2022-07-27T14:08:30.212Z,33.02
2022-07-27T14:10:57.677Z,33.24
2022-07-27T14:13:26.494Z,33.50
2022-07-27T14:15:55.496Z,33.67
2022-07-27T14:18:24.301Z,33.93
2022-07-27T14:20:51.521Z,33.71
2022-07-27T14:23:18.634Z,33.95
2022-07-27T14:25:46.416Z,34.03
2022-07-27T14:28:13.565Z,34.01
2022-07-27T14:30:40.708Z,34.37
2022-07-27T14:33:08.198Z,33.61
2022-07-27T14:35:40.227Z,33.41
2022-07-27T14:38:08.480Z,32.74
2022-07-27T14:40:35.629Z,32.92
2022-07-27T14:43:02.866Z,33.41
2022-07-27T14:45:44.701Z,33.08
2022-07-27T14:48:23.132Z,33.10
2022-07-27T14:51:00.248Z,33.17
2022-07-27T14:53:27.366Z,33.35
2022-07-27T14:55:54.493Z,32.50
2022-07-27T14:58:21.921Z,32.01
2022-07-27T15:00:49.056Z,32.55
2022-07-27T15:03:16.617Z,32.31
2022-07-27T15:05:49.924Z,31.74
2022-07-27T15:08:21.154Z,32.11
2022-07-27T15:10:48.772Z,32.20
2022-07-27T15:13:16.452Z,31.77
2022-07-27T15:15:43.984Z,31.97
2022-07-27T15:18:11.521Z,31.96
2022-07-27T15:20:38.630Z,32.09
2022-07-27T15:23:06.584Z,32.80
2022-07-27T15:25:34.119Z,32.22
2022-07-27T15:28:01.382Z,32.54
2022-07-27T15:30:28.634Z,32.45
2022-07-27T15:32:56.031Z,33.02
2022-07-27T15:35:23.350Z,31.85
2022-07-27T15:37:54.176Z,32.61
2022-07-27T15:40:38.368Z,32.23
2022-07-27T15:43:06.060Z,31.88
2022-07-27T15:45:38.356Z,32.16
2022-07-27T15:48:06.029Z,32.33
2022-07-27T15:50:33.421Z,33.03
2022-07-27T15:53:01.636Z,33.27
2022-07-27T15:55:28.814Z,32.13
2022-07-27T15:57:56.173Z,32.29
2022-07-27T16:00:23.325Z,32.57
2022-07-27T16:02:53.181Z,32.75
2022-07-27T16:05:21.110Z,32.77
2022-07-27T16:07:48.269Z,31.88
2022-07-27T16:10:15.760Z,32.12
2022-07-27T16:12:43.031Z,31.96
2022-07-27T16:15:10.515Z,32.29
2022-07-27T16:17:38.130Z,32.28
2022-07-27T16:20:05.481Z,32.08
2022-07-27T16:22:34.308Z,31.19
2022-07-27T16:25:01.696Z,30.78
2022-07-27T16:27:28.930Z,30.58
2022-07-27T16:29:56.961Z,30.73
2022-07-27T16:32:24.569Z,30.88
2022-07-27T16:34:51.880Z,31.30
2022-07-27T16:37:19.017Z,30.85
2022-07-27T16:39:46.451Z,30.60
2022-07-27T16:42:13.592Z,30.70
2022-07-27T16:44:41.418Z,30.73
2022-07-27T16:47:09.690Z,30.53
2022-07-27T16:49:37.205Z,31.36
2022-07-27T16:52:05.242Z,30.23
2022-07-27T16:54:37.083Z,30.27
2022-07-27T16:57:06.900Z,30.04
2022-07-27T16:59:34.308Z,30.33
2022-07-27T17:02:01.532Z,30.27
2022-07-27T17:04:28.774Z,30.31
2022-07-27T17:06:56.207Z,29.87
2022-07-27T17:09:23.362Z,29.73
2022-07-27T17:11:50.527Z,29.92
2022-07-27T17:14:18.031Z,29.47
2022-07-27T17:16:51.821Z,30.07
2022-07-27T17:19:19.756Z,30.23
2022-07-27T17:21:47.962Z,28.80
2022-07-27T17:24:15.130Z,28.57
2022-07-27T17:26:42.520Z,28.60
2022-07-27T17:29:09.953Z,28.34
2022-07-27T17:31:37.378Z,27.68
2022-07-27T17:34:04.854Z,27.60
2022-07-27T17:36:32.000Z,27.32
2022-07-27T17:39:00.315Z,27.88
2022-07-27T17:41:27.710Z,27.37
2022-07-27T17:43:55.010Z,27.45
2022-07-27T17:46:22.823Z,27.13
2022-07-27T17:48:50.518Z,26.79
2022-07-27T17:51:17.701Z,26.89
2022-07-27T17:53:44.877Z,27.31
2022-07-27T17:56:13.231Z,27.02
2022-07-27T17:58:40.413Z,26.84
2022-07-27T18:01:08.751Z,27.21
2022-07-27T18:03:36.226Z,27.64
2022-07-27T18:06:03.348Z,27.64
2022-07-27T18:08:30.492Z,27.42
2022-07-27T18:10:57.977Z,27.20
2022-07-27T18:13:37.934Z,26.98
2022-07-27T18:16:12.013Z,26.99
2022-07-27T18:18:39.821Z,26.94
2022-07-27T18:21:07.058Z,26.43
2022-07-27T18:23:34.655Z,26.66
2022-07-27T18:26:01.801Z,26.69
2022-07-27T18:28:28.976Z,26.64
2022-07-27T18:30:56.461Z,26.40
2022-07-27T18:33:24.871Z,26.53
2022-07-27T18:35:52.001Z,26.53
2022-07-27T18:38:21.417Z,26.62
2022-07-27T18:40:48.532Z,26.52
2022-07-27T18:43:16.042Z,26.47
2022-07-27T18:45:43.415Z,26.01
2022-07-27T18:48:10.662Z,26.15
2022-07-27T18:50:39.565Z,25.60
2022-07-27T18:53:07.661Z,25.82
2022-07-27T18:55:34.830Z,25.73
2022-07-27T18:58:02.034Z,25.63
2022-07-27T19:00:29.584Z,25.71
2022-07-27T19:02:58.005Z,25.45
2022-07-27T19:05:32.311Z,25.46
2022-07-27T19:08:13.493Z,25.21
2022-07-27T19:10:42.081Z,25.20
2022-07-27T19:13:10.478Z,24.97
2022-07-27T19:15:37.850Z,25.21
2022-07-27T19:18:05.334Z,25.05
2022-07-27T19:20:32.798Z,25.12
2022-07-27T19:23:00.750Z,24.63
2022-07-27T19:25:30.318Z,24.85
2022-07-27T19:27:57.812Z,24.98
2022-07-27T19:30:24.948Z,25.13
2022-07-27T19:32:52.079Z,24.66
2022-07-27T19:35:19.526Z,24.61
2022-07-27T19:37:46.893Z,25.07
2022-07-27T19:40:42.751Z,24.84
2022-07-27T19:43:01.424Z,24.90
2022-07-27T19:45:28.529Z,24.66
2022-07-27T19:47:55.805Z,24.52
2022-07-27T19:50:27.397Z,24.44
2022-07-27T19:52:54.511Z,24.42
2022-07-27T19:55:21.723Z,24.66
2022-07-27T19:57:49.140Z,24.64
2022-07-27T20:00:16.443Z,24.52
2022-07-27T20:02:43.905Z,24.13
2022-07-27T20:05:11.038Z,24.39
2022-07-27T20:07:38.226Z,24.12
2022-07-27T20:10:05.850Z,24.13
2022-07-27T20:12:32.978Z,24.02
2022-07-27T20:15:00.470Z,23.75
2022-07-27T20:17:27.870Z,23.25
2022-07-27T20:19:54.982Z,23.88
2022-07-27T20:22:22.436Z,23.47
2022-07-27T20:24:49.880Z,23.26
2022-07-27T20:27:17.029Z,23.48
2022-07-27T20:29:44.138Z,23.86
2022-07-27T20:32:12.562Z,23.69
2022-07-27T20:34:39.685Z,23.73
2022-07-27T20:37:07.011Z,23.72
2022-07-27T20:39:34.437Z,23.59
2022-07-27T20:42:02.423Z,23.74
2022-07-27T20:44:29.591Z,24.02
2022-07-27T20:46:56.956Z,23.82
2022-07-27T20:49:24.945Z,24.12
2022-07-27T20:51:52.146Z,24.13
2022-07-27T20:54:29.064Z,23.92
2022-07-27T20:56:57.041Z,24.29
2022-07-27T20:59:24.584Z,24.16
2022-07-27T21:01:52.141Z,24.11
2022-07-27T21:04:19.604Z,23.99
2022-07-27T21:06:47.035Z,24.07
2022-07-27T21:09:14.456Z,23.59
2022-07-27T21:11:41.936Z,23.54
2022-07-27T21:14:09.660Z,24.10
2022-07-27T21:16:37.074Z,23.43
2022-07-27T21:19:04.302Z,23.75
2022-07-27T21:21:31.715Z,23.10
2022-07-27T21:24:18.331Z,23.10
2022-07-27T21:26:48.715Z,22.94
2022-07-27T21:29:16.317Z,22.99
2022-07-27T21:31:46.909Z,22.65
2022-07-27T21:34:17.106Z,23.10
2022-07-27T21:36:44.357Z,22.79
2022-07-27T21:39:11.557Z,23.14
2022-07-27T21:41:39.384Z,23.23
2022-07-27T21:44:06.515Z,22.63
2022-07-27T21:46:33.650Z,22.76
2022-07-27T21:49:01.153Z,22.78
2022-07-27T21:51:28.340Z,23.24
2022-07-27T21:53:56.793Z,23.36
2022-07-27T21:56:24.677Z,23.25
2022-07-27T21:58:51.810Z,22.97
2022-07-27T22:01:19.161Z,23.24
2022-07-27T22:03:46.834Z,23.05
2022-07-27T22:06:14.052Z,23.49
2022-07-27T22:08:41.202Z,23.85
2022-07-27T22:11:08.681Z,24.14
2022-07-27T22:13:35.835Z,24.05
2022-07-27T22:16:03.070Z,24.84
2022-07-27T22:18:30.703Z,24.37
2022-07-27T22:20:58.617Z,24.72
2022-07-27T22:23:25.802Z,24.85
2022-07-27T22:25:53.247Z,24.42
2022-07-27T22:28:20.622Z,24.87
2022-07-27T22:31:20.610Z,25.09
2022-07-27T22:33:40.914Z,24.97
2022-07-27T22:36:12.268Z,24.84
2022-07-27T22:38:39.613Z,24.81
2022-07-27T22:41:06.920Z,25.06
2022-07-27T22:43:34.302Z,25.04
2022-07-27T22:46:04.905Z,25.36
2022-07-27T22:48:32.372Z,25.19
2022-07-27T22:50:59.883Z,25.28
2022-07-27T22:53:27.057Z,24.69
2022-07-27T22:55:54.239Z,25.07
2022-07-27T22:58:21.735Z,25.24
2022-07-27T23:00:49.089Z,25.10
2022-07-27T23:03:16.430Z,25.26
2022-07-27T23:05:43.923Z,25.69
2022-07-27T23:08:11.123Z,25.54
2022-07-27T23:10:47.438Z,25.51
2022-07-27T23:13:15.165Z,25.31
2022-07-27T23:15:42.595Z,24.83
2022-07-27T23:18:09.745Z,25.07
2022-07-27T23:20:37.444Z,25.36
2022-07-27T23:23:05.012Z,25.46
2022-07-27T23:25:43.927Z,25.74
2022-07-27T23:28:11.162Z,25.73
2022-07-27T23:30:38.298Z,25.29
2022-07-27T23:33:06.106Z,25.06
2022-07-27T23:35:33.278Z,25.49
2022-07-27T23:38:00.575Z,25.77
2022-07-27T23:40:28.093Z,26.07
2022-07-27T23:42:55.263Z,25.71
2022-07-27T23:45:22.406Z,25.34
2022-07-27T23:47:49.791Z,24.88
2022-07-27T23:50:17.213Z,23.78
2022-07-27T23:52:44.320Z,23.98
2022-07-27T23:55:11.710Z,24.29
2022-07-27T23:57:38.833Z,24.05
